Time;durP1;ratioP1;P1;durP2;ratioP2;P2;SDS_P1;SDS_P2;PMS_P1;PMS_P2;Temp;Humidity;BMP_temperature;BMP_pressure;BME280_temperature;BME280_humidity;BME280_pressure;Samples;Min_cycle;Max_cycle;Signal;HPM_P1;HPM_P2
2022/11/29 00:00:28;;;;;;;25.35;16.42;;;7.80;88.20;;;;;;5005763;28;20432;-63
2022/11/29 00:02:53;;;;;;;23.98;16.23;;;7.80;88.30;;;;;;5011025;28;20118;-64
2022/11/29 00:05:19;;;;;;;21.58;15.77;;;7.70;88.30;;;;;;5008111;28;20034;-63
2022/11/29 00:07:44;;;;;;;22.33;15.55;;;7.80;88.50;;;;;;5008089;28;20073;-64
2022/11/29 00:10:10;;;;;;;23.02;15.93;;;7.80;88.50;;;;;;5005675;28;20662;-63
2022/11/29 00:12:36;;;;;;;23.75;15.80;;;7.80;88.40;;;;;;5004660;28;20034;-64
2022/11/29 00:15:01;;;;;;;25.55;16.17;;;7.80;88.30;;;;;;5007351;28;20125;-64
2022/11/29 00:17:27;;;;;;;23.27;15.52;;;7.80;88.30;;;;;;5007644;28;20030;-64
2022/11/29 00:19:52;;;;;;;22.60;16.00;;;7.80;88.30;;;;;;5007472;28;20576;-64
2022/11/29 00:22:18;;;;;;;23.40;15.70;;;7.80;88.30;;;;;;5007372;28;20508;-64
2022/11/29 00:24:44;;;;;;;21.88;15.60;;;7.90;88.50;;;;;;5005232;28;20081;-64
2022/11/29 00:27:09;;;;;;;24.58;16.42;;;7.80;88.40;;;;;;5007120;28;20044;-63
2022/11/29 00:29:35;;;;;;;25.83;16.65;;;7.90;88.50;;;;;;5009688;28;20048;-64
2022/11/29 00:32:00;;;;;;;29.20;17.67;;;7.90;88.60;;;;;;5013462;28;20049;-62
2022/11/29 00:34:27;;;;;;;26.95;17.48;;;7.90;88.50;;;;;;5012853;28;20033;-64
2022/11/29 00:36:52;;;;;;;25.55;16.85;;;7.90;88.50;;;;;;5009129;28;20034;-62
2022/11/29 00:39:18;;;;;;;23.75;15.98;;;7.90;88.50;;;;;;5013164;28;20404;-63
2022/11/29 00:41:44;;;;;;;24.20;16.08;;;7.90;88.50;;;;;;5008550;28;20065;-63
2022/11/29 00:44:10;;;;;;;20.63;14.57;;;7.90;88.50;;;;;;5010878;28;20500;-63
2022/11/29 00:46:36;;;;;;;21.17;14.70;;;7.90;88.50;;;;;;5008267;28;20038;-61
2022/11/29 00:49:01;;;;;;;21.98;14.00;;;7.90;88.50;;;;;;5012613;28;20413;-64
2022/11/29 00:51:27;;;;;;;21.70;15.00;;;7.90;88.60;;;;;;5014854;28;20425;-64
2022/11/29 00:53:52;;;;;;;20.42;14.55;;;7.90;88.60;;;;;;5016480;28;20286;-62
2022/11/29 00:56:18;;;;;;;17.88;12.88;;;7.90;88.50;;;;;;5016965;28;20478;-64
2022/11/29 00:58:43;;;;;;;18.35;13.18;;;8.00;88.60;;;;;;5014658;28;20378;-63
2022/11/29 01:01:10;;;;;;;17.90;13.02;;;8.00;88.70;;;;;;5009844;28;20022;-63
2022/11/29 01:03:36;;;;;;;17.60;12.70;;;7.90;88.60;;;;;;5016509;28;20033;-63
2022/11/29 01:06:07;;;;;;;21.33;13.18;;;7.90;88.70;;;;;;5011183;28;20038;-63
2022/11/29 01:08:34;;;;;;;16.75;12.18;;;8.00;88.90;;;;;;5008828;28;20045;-64
2022/11/29 01:11:16;;;;;;;16.73;12.93;;;7.90;88.90;;;;;;5011416;28;20076;-64
2022/11/29 01:13:42;;;;;;;17.05;12.07;;;8.00;89.00;;;;;;5011834;28;20030;-64
2022/11/29 01:16:08;;;;;;;18.05;13.15;;;8.00;89.00;;;;;;5016207;28;20033;-63
2022/11/29 01:18:34;;;;;;;16.30;12.70;;;8.00;89.00;;;;;;5009797;28;20057;-63
2022/11/29 01:21:18;;;;;;;17.10;12.80;;;8.00;89.00;;;;;;5009982;28;20049;-63
2022/11/29 01:23:45;;;;;;;15.88;12.25;;;8.00;89.20;;;;;;5012507;28;20497;-63
2022/11/29 01:26:13;;;;;;;16.77;12.23;;;8.00;89.00;;;;;;5011555;28;20042;-64
2022/11/29 01:28:39;;;;;;;16.42;12.32;;;8.00;89.00;;;;;;5013112;28;20609;-63
2022/11/29 01:31:14;;;;;;;15.00;12.27;;;8.00;89.00;;;;;;5014304;28;20421;-64
2022/11/29 01:33:40;;;;;;;18.48;12.57;;;8.00;89.10;;;;;;5007917;28;20706;-64
2022/11/29 01:36:07;;;;;;;15.75;11.73;;;8.00;89.00;;;;;;5013540;28;20045;-63
2022/11/29 01:38:33;;;;;;;20.27;12.05;;;8.00;89.10;;;;;;5014674;28;20052;-63
2022/11/29 01:41:08;;;;;;;15.23;12.02;;;8.00;89.10;;;;;;5014494;28;20045;-62
2022/11/29 01:43:51;;;;;;;16.67;11.93;;;8.00;89.30;;;;;;5012301;28;20053;-62
2022/11/29 01:46:17;;;;;;;16.05;11.77;;;8.00;89.30;;;;;;5014724;28;20060;-63
2022/11/29 01:48:42;;;;;;;16.35;11.98;;;8.10;89.30;;;;;;5012198;28;20737;-64
2022/11/29 01:51:08;;;;;;;17.40;12.48;;;8.10;89.40;;;;;;5011696;28;20409;-64
2022/11/29 01:53:33;;;;;;;15.88;11.70;;;8.10;89.40;;;;;;5011310;28;20084;-64
2022/11/29 01:56:03;;;;;;;15.98;12.38;;;8.10;89.50;;;;;;5014790;28;20034;-64
2022/11/29 01:58:29;;;;;;;14.10;12.02;;;8.10;89.50;;;;;;5013031;28;20053;-63
2022/11/29 02:00:55;;;;;;;15.60;12.07;;;8.10;89.50;;;;;;5012854;28;20022;-61
2022/11/29 02:03:21;;;;;;;16.38;11.77;;;8.10;89.40;;;;;;5015836;28;20033;-64
2022/11/29 02:05:50;;;;;;;15.20;11.43;;;8.20;89.40;;;;;;5016811;28;20025;-63
2022/11/29 02:08:23;;;;;;;15.70;11.73;;;8.20;89.40;;;;;;5013731;28;20069;-63
2022/11/29 02:11:16;;;;;;;14.88;11.30;;;8.20;89.50;;;;;;5016201;28;20044;-63
2022/11/29 02:14:14;;;;;;;13.70;10.48;;;8.20;89.50;;;;;;5014238;28;20505;-63
2022/11/29 02:16:58;;;;;;;15.13;11.35;;;8.20;89.50;;;;;;5004599;28;20033;-64
2022/11/29 02:19:39;;;;;;;14.82;10.98;;;8.20;89.30;;;;;;5011075;28;20633;-63
2022/11/29 02:22:12;;;;;;;13.70;10.63;;;8.20;90.10;;;;;;5010825;28;20176;-64
2022/11/29 02:25:02;;;;;;;14.55;11.20;;;8.20;89.30;;;;;;5007339;28;20405;-61
2022/11/29 02:27:45;;;;;;;14.00;10.63;;;8.30;89.60;;;;;;5008460;28;20133;-63
2022/11/29 02:30:38;;;;;;;14.18;10.80;;;8.30;89.50;;;;;;5008420;28;20029;-63
2022/11/29 02:33:34;;;;;;;13.65;10.30;;;8.30;89.50;;;;;;5008190;28;20470;-64
2022/11/29 02:36:18;;;;;;;;;;;8.30;89.70;;;;;;5008839;28;20784;-63
2022/11/29 02:38:46;;;;;;;12.90;9.85;;;8.30;90.00;;;;;;5008568;28;20435;-62
2022/11/29 02:41:26;;;;;;;13.55;10.63;;;8.30;89.20;;;;;;5007197;28;20112;-64
2022/11/29 02:43:52;;;;;;;14.02;10.75;;;8.30;89.50;;;;;;5007341;28;20041;-62
2022/11/29 02:46:31;;;;;;;13.48;10.25;;;8.30;89.40;;;;;;5007643;28;20026;-64
2022/11/29 02:49:10;;;;;;;13.00;10.25;;;8.30;89.70;;;;;;5007524;28;20026;-64
2022/11/29 02:51:47;;;;;;;14.00;10.73;;;8.30;89.70;;;;;;5007813;28;20084;-64
2022/11/29 02:54:22;;;;;;;16.55;10.43;;;8.30;89.70;;;;;;5008786;28;20030;-64
2022/11/29 02:56:50;;;;;;;;;;;8.30;89.70;;;;;;5013160;28;20096;-63
2022/11/29 02:59:55;;;;;;;12.15;9.75;;;8.40;90.00;;;;;;5012188;28;20222;-64
2022/11/29 03:02:36;;;;;;;11.82;9.43;;;8.40;89.70;;;;;;5009343;28;20029;-64
2022/11/29 03:05:26;;;;;;;12.05;9.18;;;8.30;89.50;;;;;;5012609;28;20042;-64
2022/11/29 03:07:55;;;;;;;13.07;9.55;;;8.40;89.80;;;;;;5013912;28;20033;-64
2022/11/29 03:10:42;;;;;;;12.25;9.88;;;8.40;89.60;;;;;;5016623;28;20041;-61
2022/11/29 03:13:19;;;;;;;12.45;10.05;;;8.40;89.80;;;;;;5012911;28;20048;-64
2022/11/29 03:15:56;;;;;;;15.27;10.65;;;8.40;89.70;;;;;;5014282;28;20085;-63
2022/11/29 03:18:33;;;;;;;12.40;9.82;;;8.40;89.70;;;;;;5013828;28;20073;-63
2022/11/29 03:21:17;;;;;;;14.57;10.30;;;8.40;89.70;;;;;;5013810;28;20713;-63
2022/11/29 03:24:08;;;;;;;12.50;10.23;;;8.40;89.70;;;;;;5013804;28;20405;-64
2022/11/29 03:26:37;;;;;;;13.15;10.38;;;8.40;89.90;;;;;;5015963;28;20041;-63
2022/11/29 03:29:28;;;;;;;12.68;10.50;;;8.40;89.70;;;;;;5015859;28;20107;-63
2022/11/29 03:32:04;;;;;;;13.45;10.70;;;8.40;89.80;;;;;;5009870;28;20489;-63
2022/11/29 03:34:47;;;;;;;14.00;9.90;;;8.40;89.70;;;;;;5013820;28;20033;-64
2022/11/29 03:37:25;;;;;;;14.05;10.60;;;8.50;89.90;;;;;;5013987;28;20040;-63
2022/11/29 03:40:13;;;;;;;14.57;10.70;;;8.50;89.90;;;;;;5013915;28;20034;-64
2022/11/29 03:42:51;;;;;;;12.90;10.60;;;8.50;89.90;;;;;;5014046;28;20397;-64
2022/11/29 03:45:35;;;;;;;13.88;10.82;;;8.50;89.80;;;;;;5013442;28;20022;-64
2022/11/29 03:48:20;;;;;;;12.50;10.05;;;8.50;89.90;;;;;;5014010;28;20061;-63
2022/11/29 03:51:04;;;;;;;;;;;8.50;89.90;;;;;;5010115;28;20037;-63
2022/11/29 03:53:40;;;;;;;13.90;9.93;;;8.50;90.00;;;;;;5013534;28;20022;-64
2022/11/29 03:56:32;;;;;;;13.98;10.40;;;8.50;89.50;;;;;;5013068;28;20088;-62
2022/11/29 03:59:22;;;;;;;13.32;10.20;;;8.50;89.70;;;;;;5011690;28;20034;-63
2022/11/29 04:01:53;;;;;;;13.13;10.60;;;8.50;89.70;;;;;;5014306;28;20030;-64
2022/11/29 04:04:31;;;;;;;14.00;10.65;;;8.50;89.60;;;;;;5015651;28;20567;-64
2022/11/29 04:07:15;;;;;;;13.52;10.43;;;8.50;89.90;;;;;;5016767;28;20099;-63
2022/11/29 04:10:15;;;;;;;13.63;10.40;;;8.50;89.80;;;;;;5019318;28;20044;-64
2022/11/29 04:12:49;;;;;;;13.57;9.75;;;8.50;89.90;;;;;;5006359;28;20030;-64
2022/11/29 04:15:39;;;;;;;13.85;10.18;;;8.50;89.70;;;;;;5014733;28;20537;-64
2022/11/29 04:18:23;;;;;;;14.50;10.88;;;8.50;89.80;;;;;;5013082;28;20056;-64
2022/11/29 04:21:25;;;;;;;13.82;10.50;;;8.50;89.60;;;;;;5009577;28;20042;-64
2022/11/29 04:24:17;;;;;;;13.55;10.65;;;8.60;89.80;;;;;;5013391;28;20037;-64
2022/11/29 04:27:07;;;;;;;13.05;10.07;;;8.60;89.80;;;;;;4969790;28;20124;-63
2022/11/29 04:29:54;;;;;;;13.02;10.35;;;8.60;89.60;;;;;;5010820;28;20034;-64
2022/11/29 04:32:34;;;;;;;12.35;9.85;;;8.60;89.50;;;;;;5013741;28;20167;-65
2022/11/29 04:35:34;;;;;;;13.95;10.73;;;8.60;89.60;;;;;;5013655;28;20080;-62
2022/11/29 04:38:22;;;;;;;12.63;10.18;;;8.60;89.60;;;;;;5013195;28;20063;-64
2022/11/29 04:41:03;;;;;;;13.48;10.18;;;8.60;89.50;;;;;;5013427;28;20131;-63
2022/11/29 04:44:08;;;;;;;13.10;10.30;;;8.60;89.50;;;;;;5009499;28;20531;-63
2022/11/29 04:46:44;;;;;;;14.10;10.38;;;8.60;89.50;;;;;;5011288;28;20044;-64
2022/11/29 04:49:10;;;;;;;14.35;10.73;;;8.60;89.30;;;;;;5010589;28;20022;-64
2022/11/29 04:52:04;;;;;;;12.48;9.80;;;8.50;89.30;;;;;;5010374;28;20382;-64
2022/11/29 04:55:05;;;;;;;12.77;9.65;;;8.50;89.30;;;;;;5010409;28;20037;-64
2022/11/29 04:58:18;;;;;;;12.60;9.52;;;8.60;89.40;;;;;;4994488;28;20048;-64
2022/11/29 05:01:03;;;;;;;13.20;10.27;;;8.60;89.50;;;;;;4939682;28;20039;-64
2022/11/29 05:03:50;;;;;;;12.38;9.77;;;8.60;89.30;;;;;;4942400;28;20134;-63
2022/11/29 05:06:38;;;;;;;13.50;10.02;;;8.60;89.30;;;;;;4997845;28;20117;-64
2022/11/29 05:09:25;;;;;;;12.80;9.90;;;8.60;89.20;;;;;;5009531;28;20034;-64
2022/11/29 05:12:07;;;;;;;15.18;11.27;;;8.60;89.30;;;;;;5010573;28;20022;-63
2022/11/29 05:14:33;;;;;;;12.75;10.43;;;8.60;89.20;;;;;;5011383;28;20467;-64
2022/11/29 05:17:26;;;;;;;13.63;10.38;;;8.60;89.20;;;;;;5007132;28;20034;-63
2022/11/29 05:20:32;;;;;;;13.00;10.63;;;8.50;89.20;;;;;;5010463;28;20525;-63
2022/11/29 05:23:19;;;;;;;11.93;10.15;;;8.60;89.20;;;;;;4965367;28;20033;-63
2022/11/29 05:25:56;;;;;;;11.45;9.65;;;8.60;89.20;;;;;;5015569;28;20061;-63
2022/11/29 05:28:43;;;;;;;12.82;10.60;;;8.60;89.10;;;;;;5017320;28;20445;-63
2022/11/29 05:31:28;;;;;;;12.23;10.50;;;8.60;89.10;;;;;;5014616;28;20084;-62
2022/11/29 05:34:26;;;;;;;12.48;9.85;;;8.60;89.10;;;;;;5016380;28;20033;-64
2022/11/29 05:37:06;;;;;;;13.13;10.20;;;8.60;89.10;;;;;;5016443;28;20570;-63
2022/11/29 05:39:53;;;;;;;12.82;10.27;;;8.60;89.00;;;;;;5017331;28;20037;-62
2022/11/29 05:42:22;;;;;;;13.45;10.38;;;8.60;89.10;;;;;;5016256;28;20038;-64
2022/11/29 05:45:11;;;;;;;13.23;10.07;;;8.60;89.00;;;;;;5015922;28;20040;-63
2022/11/29 05:47:56;;;;;;;13.38;10.52;;;8.60;89.00;;;;;;5014482;28;20374;-64
2022/11/29 05:50:29;;;;;;;12.20;10.00;;;8.60;89.00;;;;;;5016253;28;20045;-64
2022/11/29 05:53:37;;;;;;;12.10;9.68;;;8.60;89.00;;;;;;5013927;28;20081;-63
2022/11/29 05:56:30;;;;;;;12.55;9.82;;;8.60;89.00;;;;;;4977832;28;20031;-64
2022/11/29 05:59:00;;;;;;;12.32;9.82;;;8.60;88.80;;;;;;5015833;28;20497;-63
2022/11/29 06:01:50;;;;;;;14.43;11.25;;;8.60;88.80;;;;;;5015785;28;20052;-63
2022/11/29 06:04:21;;;;;;;14.52;11.18;;;8.60;88.90;;;;;;5014122;28;20042;-63
2022/11/29 06:07:16;;;;;;;14.13;11.23;;;8.60;88.80;;;;;;5014826;28;20049;-64
2022/11/29 06:09:50;;;;;;;15.43;11.40;;;8.60;89.00;;;;;;5016412;28;20030;-62
2022/11/29 06:12:19;;;;;;;15.77;11.25;;;8.60;89.00;;;;;;5012637;28;20521;-64
2022/11/29 06:15:16;;;;;;;15.18;11.48;;;8.50;88.80;;;;;;5013769;28;20037;-63
2022/11/29 06:17:47;;;;;;;14.65;11.07;;;8.60;89.10;;;;;;5016946;28;20048;-64
2022/11/29 06:20:17;;;;;;;15.38;11.38;;;8.50;88.90;;;;;;5014023;28;20042;-62
2022/11/29 06:22:51;;;;;;;15.38;11.00;;;8.60;89.00;;;;;;5014046;28;20117;-63
2022/11/29 06:25:48;;;;;;;15.15;11.10;;;8.60;89.00;;;;;;5015105;28;20038;-64
2022/11/29 06:28:29;;;;;;;15.10;10.18;;;8.50;89.00;;;;;;5015363;28;20034;-63
2022/11/29 06:31:07;;;;;;;14.32;10.52;;;8.60;89.20;;;;;;5015379;28;20044;-64
2022/11/29 06:33:42;;;;;;;13.98;10.23;;;8.50;89.10;;;;;;5014689;28;20026;-63
2022/11/29 06:36:23;;;;;;;16.25;11.07;;;8.60;89.10;;;;;;5015527;28;20073;-64
2022/11/29 06:38:49;;;;;;;14.48;10.52;;;8.50;89.10;;;;;;5013070;28;20033;-64
2022/11/29 06:41:21;;;;;;;15.45;10.63;;;8.50;89.10;;;;;;5016019;28;20051;-64
2022/11/29 06:43:47;;;;;;;15.02;11.70;;;8.50;89.20;;;;;;5011934;28;20117;-64
2022/11/29 06:46:29;;;;;;;16.10;11.73;;;8.50;89.20;;;;;;5013241;28;20132;-64
2022/11/29 06:49:29;;;;;;;15.65;12.02;;;8.50;89.30;;;;;;5015495;28;20539;-63
2022/11/29 06:52:14;;;;;;;16.30;11.85;;;8.50;89.30;;;;;;4993914;28;20422;-63
2022/11/29 06:54:54;;;;;;;14.93;10.55;;;8.60;89.50;;;;;;5014116;28;20175;-63
2022/11/29 06:57:26;;;;;;;15.25;10.85;;;8.50;89.30;;;;;;5016089;28;20041;-61
2022/11/29 07:00:02;;;;;;;16.52;11.10;;;8.50;89.30;;;;;;5014429;28;20520;-63
2022/11/29 07:02:40;;;;;;;16.90;11.30;;;8.50;89.50;;;;;;5012675;28;20046;-63
2022/11/29 07:05:45;;;;;;;15.52;11.10;;;8.50;89.50;;;;;;5015974;28;20037;-63
2022/11/29 07:08:19;;;;;;;15.50;11.60;;;8.50;89.50;;;;;;4936377;28;20044;-64
2022/11/29 07:10:48;;;;;;;16.35;11.43;;;8.50;89.50;;;;;;5002504;28;20037;-63
2022/11/29 07:13:14;;;;;;;18.35;11.25;;;8.50;89.50;;;;;;5016101;28;20475;-63
2022/11/29 07:16:19;;;;;;;16.63;11.30;;;8.40;89.50;;;;;;5017202;28;20108;-62
2022/11/29 07:19:04;;;;;;;17.33;11.55;;;8.50;89.80;;;;;;5016127;28;20042;-64
2022/11/29 07:21:35;;;;;;;15.15;11.30;;;8.50;89.70;;;;;;5015133;28;20460;-64
2022/11/29 07:24:28;;;;;;;17.25;12.05;;;8.50;89.70;;;;;;5014748;28;20041;-64
2022/11/29 07:27:20;;;;;;;18.02;11.93;;;8.40;89.80;;;;;;5012376;28;20041;-63
2022/11/29 07:29:48;;;;;;;18.50;12.25;;;8.40;89.90;;;;;;5015252;28;20045;-64
2022/11/29 07:32:36;;;;;;;17.33;11.25;;;8.40;89.70;;;;;;5011855;28;20034;-64
2022/11/29 07:35:13;;;;;;;18.73;10.93;;;8.40;89.90;;;;;;5013425;28;20120;-63
2022/11/29 07:37:49;;;;;;;15.93;11.75;;;8.50;89.90;;;;;;5013721;28;20045;-64
2022/11/29 07:40:18;;;;;;;18.48;10.75;;;8.50;90.00;;;;;;5018126;28;20033;-63
2022/11/29 07:43:22;;;;;;;16.30;10.85;;;8.50;90.00;;;;;;5017404;28;20080;-64
2022/11/29 07:45:48;;;;;;;16.75;11.32;;;8.50;90.00;;;;;;5016903;28;20083;-65
2022/11/29 07:48:16;;;;;;;18.55;11.35;;;8.50;89.90;;;;;;5019168;28;20413;-64
2022/11/29 07:50:42;;;;;;;15.52;10.05;;;8.50;89.90;;;;;;5016104;28;20037;-63
2022/11/29 07:53:19;;;;;;;16.70;10.60;;;8.50;90.00;;;;;;5017289;28;20120;-64
2022/11/29 07:55:46;;;;;;;14.57;10.65;;;8.50;90.00;;;;;;5018208;28;20040;-63
2022/11/29 07:58:14;;;;;;;14.13;9.70;;;8.50;90.00;;;;;;5019149;28;20061;-65
2022/11/29 08:00:41;;;;;;;16.40;10.25;;;8.50;90.00;;;;;;5016810;28;20033;-64
2022/11/29 08:03:07;;;;;;;16.45;9.43;;;8.50;90.00;;;;;;5017292;28;20038;-64
2022/11/29 08:05:33;;;;;;;15.02;9.13;;;8.50;90.00;;;;;;5017025;28;20128;-64
2022/11/29 08:07:59;;;;;;;15.98;9.05;;;8.50;90.00;;;;;;5017375;28;20121;-64
2022/11/29 08:10:24;;;;;;;14.23;8.43;;;8.60;90.10;;;;;;5020782;28;20048;-64
2022/11/29 08:12:50;;;;;;;13.95;8.15;;;8.60;90.00;;;;;;5011191;28;20375;-65
2022/11/29 08:15:18;;;;;;;11.65;7.68;;;8.60;90.00;;;;;;5018304;28;20038;-64
2022/11/29 08:17:43;;;;;;;13.02;7.53;;;8.60;90.00;;;;;;5017183;28;20120;-63
2022/11/29 08:20:11;;;;;;;10.13;7.13;;;8.70;90.00;;;;;;5015986;28;20449;-63
2022/11/29 08:22:37;;;;;;;14.35;7.43;;;8.70;90.00;;;;;;5017027;28;20037;-63
2022/11/29 08:25:04;;;;;;;11.15;7.28;;;8.70;90.00;;;;;;5018772;28;20523;-64
2022/11/29 08:27:30;;;;;;;10.30;6.90;;;8.70;90.00;;;;;;5017225;28;20481;-63
2022/11/29 08:29:56;;;;;;;12.23;7.10;;;8.70;90.00;;;;;;5016968;28;20132;-63
2022/11/29 08:32:22;;;;;;;9.00;6.20;;;8.80;90.00;;;;;;5016998;28;20117;-64
2022/11/29 08:34:47;;;;;;;10.27;6.82;;;8.80;90.00;;;;;;5014545;28;20049;-63
2022/11/29 08:37:13;;;;;;;10.82;6.10;;;8.80;90.00;;;;;;5018648;28;20054;-62
2022/11/29 08:39:39;;;;;;;11.43;6.85;;;8.80;89.90;;;;;;5016301;28;20065;-63
2022/11/29 08:42:04;;;;;;;13.88;7.15;;;8.80;90.00;;;;;;5018895;28;20033;-63
2022/11/29 08:44:30;;;;;;;10.88;7.00;;;8.90;90.00;;;;;;5016037;28;20120;-63
2022/11/29 08:49:59;;;;;;;10.83;6.37;;;8.90;90.00;;;;;;5016346;28;20413;-63
2022/11/29 08:55:10;;;;;;;9.63;5.80;;;8.90;89.70;;;;;;5018021;28;20061;-63
2022/11/29 08:57:35;;;;;;;12.27;6.60;;;9.00;89.80;;;;;;5018186;28;20057;-62
2022/11/29 09:00:02;;;;;;;11.57;6.80;;;9.00;89.80;;;;;;5017175;28;20129;-64
2022/11/29 09:02:28;;;;;;;9.40;6.40;;;9.00;89.80;;;;;;4991231;28;20149;-62
2022/11/29 09:04:53;;;;;;;8.68;5.75;;;9.00;89.70;;;;;;5016996;28;20762;-63
2022/11/29 09:07:19;;;;;;;10.18;5.90;;;9.00;89.60;;;;;;5015087;28;20034;-63
2022/11/29 09:09:45;;;;;;;11.75;6.40;;;9.00;89.50;;;;;;5018841;28;20036;-62
2022/11/29 09:12:10;;;;;;;10.27;6.10;;;9.10;89.60;;;;;;4991975;28;20034;-64
2022/11/29 09:14:36;;;;;;;10.02;6.28;;;9.10;89.60;;;;;;5015708;28;20041;-63
2022/11/29 09:17:01;;;;;;;12.27;6.43;;;9.10;89.50;;;;;;5016318;28;20053;-63
2022/11/29 09:19:27;;;;;;;9.23;5.70;;;9.10;89.50;;;;;;5017057;28;20393;-63
2022/11/29 09:21:53;;;;;;;10.38;5.15;;;9.20;89.50;;;;;;5017950;28;20085;-63
2022/11/29 09:24:19;;;;;;;9.65;4.90;;;9.10;89.40;;;;;;4999527;28;20049;-62
2022/11/29 09:26:47;;;;;;;7.55;4.45;;;9.20;89.40;;;;;;5016588;28;20037;-64
2022/11/29 09:29:14;;;;;;;7.45;4.57;;;9.20;89.50;;;;;;5017692;28;20096;-63
2022/11/29 09:31:41;;;;;;;7.18;4.22;;;9.20;89.50;;;;;;5017627;28;20025;-63
2022/11/29 09:34:06;;;;;;;7.78;4.32;;;9.20;89.50;;;;;;5014990;28;20512;-64
2022/11/29 09:36:32;;;;;;;9.25;3.58;;;9.20;89.50;;;;;;5015508;28;20042;-63
2022/11/29 09:38:59;;;;;;;6.15;3.35;;;9.30;89.40;;;;;;5016024;28;20040;-62
2022/11/29 09:41:34;;;;;;;8.30;3.47;;;9.30;89.10;;;;;;5017556;28;20042;-63
2022/11/29 09:44:24;;;;;;;9.25;3.65;;;9.30;89.00;;;;;;5015848;28;20038;-63
2022/11/29 09:47:21;;;;;;;6.00;3.45;;;9.30;89.20;;;;;;5016788;28;20090;-64
2022/11/29 09:49:56;;;;;;;7.55;3.35;;;9.40;89.10;;;;;;5017162;28;20484;-63
2022/11/29 09:52:46;;;;;;;6.25;3.30;;;9.40;89.00;;;;;;5016425;28;20485;-64
2022/11/29 09:55:29;;;;;;;5.60;3.53;;;9.40;88.90;;;;;;5016093;28;20036;-63
2022/11/29 09:57:58;;;;;;;9.15;3.85;;;9.40;89.00;;;;;;5016786;28;20418;-63
2022/11/29 10:00:24;;;;;;;4.60;3.70;;;9.40;88.90;;;;;;5015884;28;20510;-62
2022/11/29 10:02:59;;;;;;;9.15;4.50;;;9.40;88.80;;;;;;5015509;28;20049;-64
2022/11/29 10:05:29;;;;;;;8.43;4.10;;;9.40;88.70;;;;;;5016491;28;20034;-63
2022/11/29 10:08:16;;;;;;;8.50;4.10;;;9.50;88.70;;;;;;5016381;28;20160;-64
2022/11/29 10:10:52;;;;;;;8.73;4.75;;;9.50;88.60;;;;;;5013685;28;20132;-64
2022/11/29 10:13:32;;;;;;;10.02;4.82;;;9.50;88.60;;;;;;5012164;28;20029;-64
2022/11/29 10:16:07;;;;;;;8.15;4.55;;;9.50;88.30;;;;;;5016771;28;20030;-63
2022/11/29 10:18:44;;;;;;;7.15;4.95;;;9.50;88.40;;;;;;5015576;28;20038;-64
2022/11/29 10:21:24;;;;;;;6.55;4.70;;;9.50;88.40;;;;;;5016228;28;20084;-63
2022/11/29 10:23:54;;;;;;;8.68;5.03;;;9.50;88.30;;;;;;5016361;28;20397;-63
2022/11/29 10:26:21;;;;;;;5.93;4.55;;;9.40;88.30;;;;;;5015155;28;20038;-64
2022/11/29 10:28:48;;;;;;;9.57;4.80;;;9.40;88.30;;;;;;5015191;28;20037;-64
2022/11/29 10:31:20;;;;;;;8.10;4.75;;;9.30;88.20;;;;;;5017266;28;20509;-64
2022/11/29 10:33:46;;;;;;;8.15;5.03;;;9.30;88.50;;;;;;5016162;28;20034;-64
2022/11/29 10:36:21;;;;;;;9.55;5.75;;;9.30;88.60;;;;;;5013857;28;20176;-63
2022/11/29 10:38:48;;;;;;;10.13;5.03;;;9.30;88.70;;;;;;5014505;28;20042;-64
2022/11/29 10:41:18;;;;;;;8.63;5.05;;;9.30;88.70;;;;;;5016232;28;20038;-64
2022/11/29 10:43:44;;;;;;;7.70;4.68;;;9.30;88.50;;;;;;5014883;28;20037;-63
2022/11/29 10:46:20;;;;;;;7.63;4.63;;;9.30;88.60;;;;;;5016091;28;20663;-64
2022/11/29 10:48:45;;;;;;;8.65;4.97;;;9.30;88.80;;;;;;5013504;28;20046;-64
2022/11/29 10:51:16;;;;;;;9.07;5.43;;;9.30;89.00;;;;;;5015553;28;20053;-62
2022/11/29 10:53:42;;;;;;;7.05;5.10;;;9.20;89.00;;;;;;5013389;28;20440;-63
2022/11/29 10:56:17;;;;;;;8.60;5.03;;;9.30;89.00;;;;;;5015279;28;20041;-64
2022/11/29 10:58:55;;;;;;;8.00;4.55;;;9.30;89.20;;;;;;5014665;28;20026;-64
2022/11/29 11:01:21;;;;;;;7.13;4.35;;;9.20;89.00;;;;;;5014741;28;20040;-64
2022/11/29 11:03:54;;;;;;;8.68;5.13;;;9.20;89.10;;;;;;5012516;28;20040;-64
2022/11/29 11:06:23;;;;;;;8.60;5.30;;;9.20;89.30;;;;;;5015585;28;20030;-64
2022/11/29 11:09:10;;;;;;;10.95;5.25;;;9.20;89.40;;;;;;5015985;28;20045;-63
2022/11/29 11:11:37;;;;;;;7.47;5.10;;;9.30;89.40;;;;;;5014923;28;20610;-63
2022/11/29 11:14:05;;;;;;;6.75;4.78;;;9.30;89.50;;;;;;5012850;28;20049;-64
2022/11/29 11:16:31;;;;;;;5.78;4.38;;;9.30;89.50;;;;;;5012927;28;20040;-64
2022/11/29 11:18:57;;;;;;;8.15;4.88;;;9.30;89.30;;;;;;5015418;28;20349;-64
2022/11/29 11:21:25;;;;;;;9.07;4.55;;;9.30;89.30;;;;;;5014357;28;20029;-64
2022/11/29 11:23:56;;;;;;;8.05;4.95;;;9.30;89.30;;;;;;5014956;28;20037;-64
2022/11/29 11:26:23;;;;;;;8.25;4.80;;;9.30;89.30;;;;;;5004504;28;20561;-64
2022/11/29 11:29:01;;;;;;;10.10;4.70;;;9.30;89.60;;;;;;5014653;28;20048;-64
2022/11/29 11:31:36;;;;;;;7.03;4.30;;;9.30;89.80;;;;;;5015202;28;20041;-64
2022/11/29 11:34:30;;;;;;;7.72;4.70;;;9.30;89.70;;;;;;5013024;28;20550;-64
2022/11/29 11:37:14;;;;;;;6.85;4.53;;;9.30;89.80;;;;;;5015151;28;20037;-64
2022/11/29 11:39:44;;;;;;;7.70;4.80;;;9.40;89.90;;;;;;5015026;28;20030;-62
2022/11/29 11:42:36;;;;;;;9.52;4.90;;;9.40;89.90;;;;;;5015516;28;20049;-64
2022/11/29 11:45:11;;;;;;;4.25;3.85;;;9.40;90.00;;;;;;5014735;28;20125;-64
2022/11/29 11:47:51;;;;;;;8.25;4.93;;;9.40;89.90;;;;;;5015177;28;20045;-64
2022/11/29 11:50:38;;;;;;;6.00;4.10;;;9.40;89.90;;;;;;5013576;28;20030;-64
2022/11/29 11:53:17;;;;;;;6.38;3.42;;;9.40;89.90;;;;;;5012567;28;20038;-63
2022/11/29 11:55:45;;;;;;;7.03;3.55;;;9.50;89.90;;;;;;5015231;28;20448;-64
2022/11/29 11:58:14;;;;;;;4.82;3.33;;;9.50;89.90;;;;;;5014669;28;20100;-64
2022/11/29 12:01:01;;;;;;;5.57;3.30;;;9.40;90.20;;;;;;5013977;28;20034;-64
2022/11/29 12:04:01;;;;;;;5.18;3.80;;;9.50;89.70;;;;;;5014388;28;20037;-63
2022/11/29 12:06:29;;;;;;;6.95;3.47;;;9.50;89.70;;;;;;5016154;28;20041;-65
2022/11/29 12:09:03;;;;;;;5.35;3.70;;;9.50;89.60;;;;;;5016128;28;20041;-63
2022/11/29 12:11:51;;;;;;;6.70;4.07;;;9.40;89.70;;;;;;5017685;28;20038;-62
2022/11/29 12:14:41;;;;;;;6.55;4.72;;;9.40;89.90;;;;;;5016366;28;20042;-63
2022/11/29 12:17:30;;;;;;;4.22;3.72;;;9.40;89.90;;;;;;5002825;28;20034;-64
2022/11/29 12:20:14;;;;;;;7.50;3.63;;;9.40;90.00;;;;;;5013928;28;20033;-65
2022/11/29 12:22:52;;;;;;;4.30;3.90;;;9.50;90.00;;;;;;5014277;28;20030;-64
2022/11/29 12:25:29;;;;;;;5.40;4.13;;;9.50;90.00;;;;;;5016785;28;20580;-64
2022/11/29 12:27:55;;;;;;;7.82;3.80;;;9.40;89.90;;;;;;5017855;28;20077;-62
2022/11/29 12:30:20;;;;;;;4.70;3.78;;;9.40;89.90;;;;;;5017358;28;20446;-63
2022/11/29 12:33:20;;;;;;;4.35;3.72;;;9.50;89.90;;;;;;5017545;28;20570;-64
2022/11/29 12:36:07;;;;;;;5.22;3.70;;;9.50;90.00;;;;;;5016858;28;20529;-63
2022/11/29 12:39:00;;;;;;;4.88;3.70;;;9.50;90.00;;;;;;5018632;28;20088;-64
2022/11/29 12:41:44;;;;;;;5.40;3.55;;;9.50;90.00;;;;;;5018869;28;20048;-64
2022/11/29 12:44:15;;;;;;;4.95;3.35;;;9.50;90.00;;;;;;5019129;28;20045;-64
2022/11/29 12:46:47;;;;;;;6.10;3.38;;;9.50;90.00;;;;;;5015224;28;20374;-64
2022/11/29 12:49:12;;;;;;;3.88;3.13;;;9.50;89.90;;;;;;5016578;28;20045;-63
2022/11/29 12:51:56;;;;;;;4.50;3.50;;;9.50;90.00;;;;;;5017163;28;20127;-63
2022/11/29 12:54:37;;;;;;;5.35;3.38;;;9.60;90.00;;;;;;5017519;28;20119;-64
2022/11/29 12:57:22;;;;;;;4.05;3.13;;;9.60;90.10;;;;;;5017555;28;20437;-63
2022/11/29 13:00:11;;;;;;;5.75;3.50;;;9.60;90.00;;;;;;5016884;28;20500;-64
2022/11/29 13:03:14;;;;;;;4.18;3.38;;;9.70;89.90;;;;;;5016609;28;20034;-63
2022/11/29 13:05:45;;;;;;;5.03;3.90;;;9.70;89.90;;;;;;5017162;28;20409;-64
2022/11/29 13:08:23;;;;;;;3.97;3.50;;;9.60;89.70;;;;;;5017180;28;20092;-64
2022/11/29 13:11:01;;;;;;;6.32;4.40;;;9.70;89.80;;;;;;5015478;28;20118;-64
2022/11/29 13:13:47;;;;;;;6.47;4.25;;;9.60;89.70;;;;;;5016946;28;20038;-64
2022/11/29 13:16:19;;;;;;;5.22;3.78;;;9.60;89.80;;;;;;5017557;28;20041;-64
2022/11/29 13:19:11;;;;;;;6.68;4.35;;;9.60;89.90;;;;;;5015571;28;20038;-64
2022/11/29 13:21:49;;;;;;;7.15;4.55;;;9.60;90.00;;;;;;5018890;28;20112;-64
2022/11/29 13:24:36;;;;;;;6.30;4.28;;;9.60;90.00;;;;;;5018375;28;20130;-63
2022/11/29 13:27:04;;;;;;;5.88;4.20;;;9.60;90.00;;;;;;5017180;28;20037;-64
2022/11/29 13:29:30;;;;;;;4.90;3.83;;;9.60;89.90;;;;;;5018312;28;20037;-64
2022/11/29 13:31:57;;;;;;;7.07;4.40;;;9.60;89.90;;;;;;5014930;28;20018;-65
2022/11/29 13:34:40;;;;;;;7.05;4.72;;;9.60;89.90;;;;;;5016156;28;20045;-64
2022/11/29 13:37:28;;;;;;;5.57;4.00;;;9.60;90.00;;;;;;5016166;28;20088;-64